Time;durP1;ratioP1;P1;durP2;ratioP2;P2;SDS_P1;SDS_P2;PMS_P1;PMS_P2;Temp;Humidity;BMP_temperature;BMP_pressure;BME280_temperature;BME280_humidity;BME280_pressure;Samples;Min_cycle;Max_cycle;Signal;HPM_P1;HPM_P2
2021/11/29 00:00:16;;;;;;;531.30;107.73;;;2.70;99.90;;;;;;5088006;28;20479;-76
2021/11/29 00:02:46;;;;;;;526.73;105.07;;;2.70;99.90;;;;;;5087074;28;20547;-76
2021/11/29 00:05:13;;;;;;;524.27;106.40;;;2.70;99.90;;;;;;5087755;28;20461;-72
2021/11/29 00:07:40;;;;;;;535.00;116.03;;;2.70;99.90;;;;;;5084920;28;20490;-76
2021/11/29 00:10:08;;;;;;;527.47;105.80;;;2.70;99.90;;;;;;5089884;28;20476;-77
2021/11/29 00:12:36;;;;;;;534.83;115.70;;;2.60;99.90;;;;;;5070847;28;20467;-78
2021/11/29 00:15:03;;;;;;;536.27;112.03;;;2.60;99.90;;;;;;5095136;28;20197;-77
2021/11/29 00:17:32;;;;;;;535.87;112.03;;;2.60;99.90;;;;;;5092164;28;20470;-77
2021/11/29 00:19:59;;;;;;;535.53;113.60;;;2.60;99.90;;;;;;5088458;28;20497;-78
2021/11/29 00:22:26;;;;;;;531.07;108.87;;;2.60;99.90;;;;;;5090538;28;20557;-78
2021/11/29 00:24:54;;;;;;;532.93;105.33;;;2.60;99.90;;;;;;5089460;28;20197;-77
2021/11/29 00:27:21;;;;;;;531.33;107.37;;;2.60;99.90;;;;;;5095283;28;20495;-76
2021/11/29 00:29:48;;;;;;;531.37;107.60;;;2.70;99.90;;;;;;5076995;28;20875;-77
2021/11/29 00:32:15;;;;;;;533.10;104.77;;;2.60;99.90;;;;;;5087737;28;20471;-77
2021/11/29 00:34:43;;;;;;;532.37;107.10;;;2.60;99.90;;;;;;5089450;28;20529;-77
2021/11/29 00:37:10;;;;;;;535.57;109.20;;;2.50;99.90;;;;;;5089052;28;20471;-77
2021/11/29 00:39:37;;;;;;;528.50;101.60;;;2.50;99.90;;;;;;5094351;28;20207;-77
2021/11/29 00:42:05;;;;;;;529.53;105.37;;;2.50;99.90;;;;;;5092096;28;20491;-77
2021/11/29 00:44:32;;;;;;;533.20;106.17;;;2.40;99.90;;;;;;5092454;28;20893;-77
2021/11/29 00:46:59;;;;;;;526.67;119.17;;;2.50;99.90;;;;;;5092727;28;20515;-77
2021/11/29 00:49:26;;;;;;;533.43;112.10;;;2.40;99.90;;;;;;5092433;28;20460;-77
2021/11/29 00:51:55;;;;;;;529.77;113.50;;;2.40;99.90;;;;;;5087692;28;20466;-76
2021/11/29 00:54:22;;;;;;;520.13;102.27;;;2.50;99.90;;;;;;5087948;28;20476;-77
2021/11/29 00:56:49;;;;;;;530.83;106.47;;;2.40;99.90;;;;;;5093925;28;20965;-76
2021/11/29 00:59:16;;;;;;;532.97;106.17;;;2.40;99.90;;;;;;5093413;28;20238;-77
2021/11/29 01:01:44;;;;;;;532.30;108.43;;;2.40;99.90;;;;;;5087246;28;20502;-77
2021/11/29 01:04:11;;;;;;;538.13;107.50;;;2.30;99.90;;;;;;5093608;28;20492;-77
2021/11/29 01:06:38;;;;;;;522.87;100.93;;;2.30;99.90;;;;;;5091334;28;20483;-77
2021/11/29 01:09:07;;;;;;;522.47;99.13;;;2.30;99.90;;;;;;5073633;28;20466;-76
2021/11/29 01:11:34;;;;;;;522.83;97.17;;;2.30;99.90;;;;;;5087375;28;20468;-76
2021/11/29 01:14:01;;;;;;;529.70;104.77;;;2.30;99.90;;;;;;5089641;28;20201;-76
2021/11/29 01:16:28;;;;;;;531.10;106.97;;;2.30;99.90;;;;;;5097978;28;20494;-76
2021/11/29 01:18:55;;;;;;;527.57;101.00;;;2.30;99.90;;;;;;5079617;28;20888;-77
2021/11/29 01:21:22;;;;;;;530.00;106.00;;;2.20;99.90;;;;;;5094186;28;20521;-76
2021/11/29 01:23:49;;;;;;;519.93;102.83;;;2.20;99.90;;;;;;5086649;28;20476;-76
2021/11/29 01:26:18;;;;;;;533.03;109.97;;;2.20;99.90;;;;;;5087384;28;20470;-76
2021/11/29 01:28:47;;;;;;;531.37;108.80;;;2.20;99.90;;;;;;5087074;28;20550;-77
2021/11/29 01:31:14;;;;;;;530.07;108.23;;;2.20;99.90;;;;;;5087421;28;20469;-76
2021/11/29 01:33:42;;;;;;;524.60;104.50;;;2.20;99.90;;;;;;5094638;28;20495;-76
2021/11/29 01:36:09;;;;;;;526.33;101.20;;;2.20;99.90;;;;;;5086270;28;20535;-76
2021/11/29 01:38:36;;;;;;;533.10;104.43;;;2.20;99.90;;;;;;5094432;28;20525;-76
2021/11/29 01:41:04;;;;;;;523.90;101.20;;;2.20;99.90;;;;;;5090789;28;20467;-76
2021/11/29 01:43:32;;;;;;;527.70;99.87;;;2.10;99.90;;;;;;5086798;28;20471;-76
2021/11/29 01:46:02;;;;;;;529.50;106.07;;;2.10;99.90;;;;;;5091656;28;20509;-76
2021/11/29 01:48:30;;;;;;;529.97;105.57;;;2.20;99.90;;;;;;5090328;28;20505;-76
2021/11/29 01:51:03;;;;;;;521.20;99.13;;;2.20;99.90;;;;;;5086745;28;20475;-77
2021/11/29 01:53:32;;;;;;;529.03;104.13;;;2.20;99.90;;;;;;5086240;28;20956;-77
2021/11/29 01:56:03;;;;;;;530.17;104.23;;;2.20;99.90;;;;;;5086384;28;20467;-76
2021/11/29 01:58:34;;;;;;;529.30;107.57;;;2.10;99.90;;;;;;5088877;28;20474;-76
2021/11/29 02:01:04;;;;;;;526.30;100.57;;;2.10;99.90;;;;;;5086044;28;20461;-76
2021/11/29 02:03:34;;;;;;;530.90;108.27;;;2.10;99.90;;;;;;5092925;28;20496;-76
2021/11/29 02:06:01;;;;;;;524.90;100.33;;;2.10;99.90;;;;;;5086904;28;20469;-75
2021/11/29 02:08:29;;;;;;;524.47;100.07;;;2.10;99.90;;;;;;5086473;28;20546;-76
2021/11/29 02:10:56;;;;;;;529.70;104.83;;;2.10;99.90;;;;;;5090711;28;21037;-76
2021/11/29 02:13:23;;;;;;;519.67;95.23;;;2.10;99.90;;;;;;5088151;28;20488;-76
2021/11/29 02:15:53;;;;;;;522.20;99.80;;;2.10;99.90;;;;;;5090320;28;20474;-76
2021/11/29 02:18:22;;;;;;;530.00;103.07;;;2.00;99.90;;;;;;5086311;28;20591;-76
2021/11/29 02:21:08;;;;;;;517.93;94.87;;;2.10;99.90;;;;;;5085894;28;20464;-76
2021/11/29 02:23:37;;;;;;;519.57;99.60;;;2.00;99.90;;;;;;5086841;28;20518;-76
2021/11/29 02:28:48;;;;;;;529.50;105.40;;;2.00;99.90;;;;;;5089809;28;20488;-76
2021/11/29 02:31:19;;;;;;;519.20;99.53;;;2.00;99.90;;;;;;5085774;28;21276;-76
2021/11/29 02:33:46;;;;;;;528.73;107.47;;;2.00;99.90;;;;;;5097452;28;20466;-76
2021/11/29 02:36:15;;;;;;;527.00;105.60;;;2.00;99.90;;;;;;5091624;28;20468;-77
2021/11/29 02:38:42;;;;;;;525.00;105.40;;;1.90;99.90;;;;;;5086582;28;20471;-76
2021/11/29 02:41:10;;;;;;;530.77;108.07;;;2.00;99.90;;;;;;5092288;28;20472;-76
2021/11/29 02:43:37;;;;;;;528.67;105.17;;;1.90;99.90;;;;;;5096418;28;20499;-76
2021/11/29 02:46:04;;;;;;;516.73;96.07;;;1.80;99.90;;;;;;5087555;28;21109;-77
2021/11/29 02:48:42;;;;;;;528.17;104.57;;;1.90;99.90;;;;;;5094082;28;20498;-76
2021/11/29 02:51:20;;;;;;;518.30;102.17;;;1.80;99.90;;;;;;5090909;28;20534;-77
2021/11/29 02:53:47;;;;;;;525.10;106.20;;;1.80;99.90;;;;;;5087604;28;20487;-77
2021/11/29 02:56:14;;;;;;;525.20;107.43;;;1.80;99.90;;;;;;5091828;28;20457;-77
2021/11/29 02:58:42;;;;;;;527.67;104.20;;;1.80;99.90;;;;;;5084958;28;20470;-76
2021/11/29 03:01:17;;;;;;;519.40;101.47;;;1.80;99.90;;;;;;5090990;28;20472;-76
2021/11/29 03:03:57;;;;;;;520.93;99.90;;;1.80;99.90;;;;;;5085358;28;20514;-76
2021/11/29 03:06:26;;;;;;;521.53;102.97;;;1.80;99.90;;;;;;5086277;28;20462;-76
2021/11/29 03:08:53;;;;;;;529.13;109.30;;;1.70;99.90;;;;;;5086089;28;20497;-76
2021/11/29 03:11:22;;;;;;;520.50;102.20;;;1.70;99.90;;;;;;5090900;28;20474;-76
2021/11/29 03:13:49;;;;;;;518.57;99.80;;;1.70;99.90;;;;;;5085107;28;20467;-77
2021/11/29 03:16:17;;;;;;;525.67;100.37;;;1.60;99.90;;;;;;5085755;28;20470;-77
2021/11/29 03:18:46;;;;;;;525.00;100.43;;;1.70;99.90;;;;;;5096078;28;20495;-76
2021/11/29 03:21:17;;;;;;;515.70;94.90;;;1.70;99.90;;;;;;5097009;28;20466;-76
2021/11/29 03:23:47;;;;;;;526.20;105.57;;;1.70;99.90;;;;;;5086868;28;20522;-79
2021/11/29 03:26:18;;;;;;;523.20;101.53;;;1.70;99.90;;;;;;5091001;28;20466;-79
2021/11/29 03:28:54;;;;;;;526.67;104.43;;;1.70;99.90;;;;;;5094575;28;20597;-80
2021/11/29 03:36:46;;;;;;;517.17;97.37;;;1.70;99.90;;;;;;5085079;28;20462;-79
2021/11/29 03:39:18;;;;;;;527.20;107.30;;;1.70;99.90;;;;;;5091822;28;20462;-79
2021/11/29 03:41:45;;;;;;;529.23;104.07;;;1.70;99.90;;;;;;5091007;28;20466;-80
2021/11/29 03:46:59;;;;;;;526.60;101.77;;;1.60;99.90;;;;;;5095400;28;20521;-80
2021/11/29 03:54:53;;;;;;;519.47;95.97;;;1.60;99.90;;;;;;5093717;28;20463;-79
2021/11/29 03:57:20;;;;;;;530.03;98.37;;;1.60;99.90;;;;;;5075504;28;20504;-79
2021/11/29 03:59:47;;;;;;;522.37;97.17;;;1.60;99.90;;;;;;5100864;28;20972;-79
2021/11/29 04:02:14;;;;;;;524.70;96.57;;;1.70;99.90;;;;;;5092643;28;20499;-79
2021/11/29 04:04:41;;;;;;;522.27;94.17;;;1.60;99.90;;;;;;5099241;28;20502;-79
2021/11/29 04:07:08;;;;;;;525.70;99.10;;;1.70;99.90;;;;;;5097072;28;20497;-78
2021/11/29 04:09:37;;;;;;;515.70;90.30;;;1.70;99.90;;;;;;5092021;28;20486;-79
2021/11/29 04:14:48;;;;;;;524.57;101.20;;;1.80;99.90;;;;;;5089466;28;20470;-78
2021/11/29 04:17:15;;;;;;;517.40;96.23;;;1.90;99.90;;;;;;5094837;28;20492;-79
2021/11/29 04:19:43;;;;;;;523.10;101.80;;;1.90;99.90;;;;;;5100165;28;20516;-79
2021/11/29 04:22:10;;;;;;;524.27;101.93;;;1.90;99.90;;;;;;5091890;28;20466;-80
2021/11/29 04:24:39;;;;;;;523.10;101.40;;;1.90;99.90;;;;;;5091236;28;20457;-80
2021/11/29 04:27:08;;;;;;;524.10;102.77;;;2.00;99.90;;;;;;5095281;28;20464;-79
2021/11/29 04:29:39;;;;;;;525.27;101.77;;;2.00;99.90;;;;;;5089723;28;20517;-80
2021/11/29 04:32:07;;;;;;;524.67;102.27;;;2.00;99.90;;;;;;5093983;28;20471;-80
2021/11/29 04:34:34;;;;;;;525.10;103.27;;;2.00;99.90;;;;;;5096577;28;20474;-80
2021/11/29 04:37:02;;;;;;;516.90;97.23;;;2.10;99.90;;;;;;5092595;28;20463;-80
2021/11/29 04:39:29;;;;;;;518.13;97.33;;;2.10;99.90;;;;;;5091405;28;20473;-80
2021/11/29 04:41:55;;;;;;;515.67;95.83;;;2.10;99.90;;;;;;5095618;28;20525;-79
2021/11/29 04:44:24;;;;;;;523.03;101.67;;;2.10;99.90;;;;;;5091687;28;20466;-79
2021/11/29 04:46:51;;;;;;;524.37;102.90;;;2.10;99.90;;;;;;5092406;28;20465;-79
2021/11/29 04:49:18;;;;;;;520.83;100.23;;;2.10;99.90;;;;;;5096239;28;20914;-79
2021/11/29 04:51:45;;;;;;;526.57;104.30;;;2.00;99.90;;;;;;5090347;28;20499;-80
2021/11/29 04:54:12;;;;;;;520.17;97.37;;;2.00;99.90;;;;;;5089326;28;20474;-79
2021/11/29 04:56:40;;;;;;;527.60;104.60;;;2.00;99.90;;;;;;5088500;28;20893;-79
2021/11/29 04:59:08;;;;;;;534.20;103.63;;;2.00;99.90;;;;;;5089364;28;20491;-79
2021/11/29 05:01:36;;;;;;;530.47;106.47;;;2.10;99.90;;;;;;5088332;28;20478;-79
2021/11/29 05:04:04;;;;;;;526.83;103.83;;;2.10;99.90;;;;;;5092947;28;20489;-79
2021/11/29 05:06:30;;;;;;;518.53;99.90;;;2.10;99.90;;;;;;5101090;28;20499;-79
2021/11/29 05:08:57;;;;;;;522.97;100.27;;;2.10;99.90;;;;;;5093935;28;20489;-79
2021/11/29 05:11:24;;;;;;;518.67;97.97;;;2.10;99.90;;;;;;5087889;28;20456;-79
2021/11/29 05:13:51;;;;;;;524.40;103.27;;;2.00;99.90;;;;;;5088712;28;20459;-79
2021/11/29 05:16:18;;;;;;;518.30;99.30;;;2.00;99.90;;;;;;5095455;28;20874;-79
2021/11/29 05:18:47;;;;;;;520.30;97.50;;;1.90;99.90;;;;;;5089262;28;20473;-78
2021/11/29 05:21:14;;;;;;;524.80;104.23;;;1.90;99.90;;;;;;5088433;28;20479;-79
2021/11/29 05:29:06;;;;;;;529.27;99.80;;;2.10;99.90;;;;;;5091797;28;20489;-79
2021/11/29 05:31:33;;;;;;;522.77;101.00;;;2.20;99.90;;;;;;5090826;28;20551;-78
2021/11/29 05:34:02;;;;;;;516.87;95.37;;;2.20;99.90;;;;;;5087503;28;20467;-78
2021/11/29 05:44:32;;;;;;;523.57;103.83;;;2.50;99.90;;;;;;5092958;28;20227;-79
2021/11/29 05:46:59;;;;;;;519.63;100.57;;;2.40;99.90;;;;;;5093167;28;20469;-79
2021/11/29 05:49:27;;;;;;;533.87;111.43;;;2.50;99.90;;;;;;5093819;28;20490;-79
2021/11/29 06:00:04;;;;;;;534.27;112.50;;;2.80;99.90;;;;;;5096876;28;20283;-78
2021/11/29 06:05:23;;;;;;;533.63;114.93;;;2.90;99.90;;;;;;5085687;28;20475;-79
2021/11/29 06:18:34;;;;;;;525.83;103.73;;;3.10;99.90;;;;;;5086047;28;20476;-78
2021/11/29 06:21:06;;;;;;;540.30;113.40;;;3.20;99.90;;;;;;5092080;28;20470;-80
2021/11/29 06:23:33;;;;;;;537.67;118.47;;;3.20;99.90;;;;;;5093040;28;20512;-81
2021/11/29 06:26:01;;;;;;;529.57;109.93;;;3.30;99.90;;;;;;5087880;28;20473;-80
2021/11/29 06:28:28;;;;;;;534.07;113.87;;;3.30;99.90;;;;;;5090673;28;20482;-78
2021/11/29 06:30:56;;;;;;;535.73;114.07;;;3.30;99.90;;;;;;5092530;28;20989;-78
2021/11/29 06:33:23;;;;;;;533.20;111.97;;;3.40;99.90;;;;;;5090474;28;20832;-78
2021/11/29 06:35:51;;;;;;;534.80;113.77;;;3.40;99.90;;;;;;5092653;28;20560;-78
2021/11/29 06:38:20;;;;;;;533.37;111.97;;;3.20;99.90;;;;;;5087082;28;20455;-78
2021/11/29 06:40:49;;;;;;;529.83;109.67;;;3.30;99.90;;;;;;5086562;28;20516;-78
2021/11/29 06:43:17;;;;;;;531.20;109.97;;;3.20;99.90;;;;;;5092220;28;20450;-79
2021/11/29 06:45:44;;;;;;;527.40;106.50;;;3.20;99.90;;;;;;5087184;28;20467;-78
2021/11/29 06:48:12;;;;;;;530.27;109.13;;;3.30;99.90;;;;;;5090451;28;20554;-79
2021/11/29 06:50:39;;;;;;;539.47;119.50;;;3.30;99.90;;;;;;5091594;28;20472;-79
2021/11/29 06:53:07;;;;;;;529.50;107.43;;;3.30;99.90;;;;;;5091107;28;20485;-79
2021/11/29 06:55:37;;;;;;;532.63;105.17;;;3.30;99.90;;;;;;5098413;28;20536;-79
2021/11/29 06:58:04;;;;;;;531.03;104.80;;;3.40;99.90;;;;;;5088399;28;20467;-79
2021/11/29 07:00:32;;;;;;;528.50;104.07;;;3.40;99.90;;;;;;5095648;28;20467;-79
2021/11/29 07:03:00;;;;;;;532.00;107.07;;;3.40;99.90;;;;;;5088636;28;20495;-79
2021/11/29 07:05:30;;;;;;;537.80;113.10;;;3.40;99.90;;;;;;5091986;28;20474;-79
2021/11/29 07:08:05;;;;;;;533.27;110.33;;;3.40;99.90;;;;;;5094090;28;20463;-79
2021/11/29 07:10:33;;;;;;;568.00;184.25;;;3.30;99.90;;;;;;5087755;28;20508;-78
2021/11/29 07:13:01;;;;;;;543.70;119.67;;;3.30;99.90;;;;;;5088560;28;20204;-78
2021/11/29 07:15:33;;;;;;;536.77;110.63;;;3.30;99.90;;;;;;5095894;28;20473;-82
2021/11/29 07:28:47;;;;;;;534.20;110.90;;;3.40;99.90;;;;;;5093537;28;20501;-82
2021/11/29 07:33:55;;;;;;;529.97;105.27;;;3.40;99.90;;;;;;5105881;28;20846;-82
2021/11/29 07:36:22;;;;;;;529.67;105.13;;;3.50;99.90;;;;;;5099738;28;20470;-82
2021/11/29 07:41:34;;;;;;;530.83;107.97;;;3.50;99.90;;;;;;5100472;28;20822;-81
2021/11/29 07:44:04;;;;;;;541.10;117.80;;;3.40;99.90;;;;;;5093769;28;20459;-81
2021/11/29 07:46:31;;;;;;;540.27;117.17;;;3.40;99.90;;;;;;5097684;28;20503;-81
2021/11/29 07:49:00;;;;;;;529.60;112.70;;;3.50;99.90;;;;;;5101244;28;20499;-79
2021/11/29 07:51:27;;;;;;;534.27;116.63;;;3.50;99.90;;;;;;5093986;28;20467;-80
2021/11/29 07:53:54;;;;;;;530.57;111.00;;;3.50;99.90;;;;;;5097385;28;20880;-80
2021/11/29 07:56:21;;;;;;;534.33;113.23;;;3.40;99.90;;;;;;5100897;28;20462;-81
2021/11/29 07:58:48;;;;;;;539.90;124.13;;;3.40;99.90;;;;;;5094092;28;20472;-80
2021/11/29 08:01:17;;;;;;;534.70;114.17;;;3.30;99.90;;;;;;5091097;28;20496;-80
2021/11/29 08:03:44;;;;;;;533.97;113.33;;;3.30;99.90;;;;;;5094425;28;20551;-80
2021/11/29 08:06:11;;;;;;;535.37;110.83;;;3.30;99.90;;;;;;5091028;28;20493;-80
2021/11/29 08:08:38;;;;;;;535.33;110.27;;;3.30;99.90;;;;;;5089808;28;20471;-80
2021/11/29 08:11:06;;;;;;;534.83;109.87;;;3.30;99.90;;;;;;5090675;28;20468;-80
2021/11/29 08:13:33;;;;;;;536.47;108.93;;;3.40;99.90;;;;;;5089987;28;20467;-80
2021/11/29 08:16:00;;;;;;;534.20;109.10;;;3.40;99.90;;;;;;5090096;28;20520;-80
2021/11/29 08:18:28;;;;;;;534.77;110.10;;;3.30;99.90;;;;;;5090559;28;20500;-80
2021/11/29 08:21:03;;;;;;;533.43;108.40;;;3.30;99.90;;;;;;5089648;28;20462;-81
2021/11/29 08:23:30;;;;;;;534.50;106.77;;;3.30;99.90;;;;;;5093891;28;20482;-80
2021/11/29 08:25:58;;;;;;;534.77;110.40;;;3.40;99.90;;;;;;5091334;28;20512;-81
2021/11/29 08:28:26;;;;;;;534.50;110.10;;;3.60;99.90;;;;;;5094918;28;20839;-80
2021/11/29 08:30:53;;;;;;;537.90;112.67;;;3.60;99.90;;;;;;5091502;28;20475;-80
2021/11/29 08:33:20;;;;;;;530.27;108.97;;;3.60;99.90;;;;;;5097503;28;20470;-80
2021/11/29 08:35:49;;;;;;;529.73;108.63;;;3.70;99.90;;;;;;5089834;28;20497;-81
2021/11/29 08:38:16;;;;;;;538.20;118.10;;;3.80;99.90;;;;;;5092465;28;20460;-81
2021/11/29 08:48:55;;;;;;;540.40;116.10;;;4.10;99.90;;;;;;5093737;28;20923;-81
2021/11/29 08:51:39;;;;;;;541.00;118.40;;;4.10;99.90;;;;;;5094164;28;20462;-81
2021/11/29 08:54:11;;;;;;;541.93;125.00;;;4.20;99.90;;;;;;5090961;28;20459;-81
2021/11/29 08:56:38;;;;;;;535.67;118.73;;;4.20;99.90;;;;;;5089828;28;20521;-81
2021/11/29 08:59:05;;;;;;;544.53;127.87;;;4.30;99.90;;;;;;5090853;28;20197;-81
2021/11/29 09:01:33;;;;;;;542.50;122.63;;;4.30;99.90;;;;;;5089913;28;20498;-81
2021/11/29 09:04:00;;;;;;;545.30;131.63;;;4.30;99.90;;;;;;5089887;28;20513;-81
2021/11/29 09:11:50;;;;;;;543.50;121.73;;;4.20;99.90;;;;;;5092582;28;20546;-81
2021/11/29 09:14:17;;;;;;;545.50;125.97;;;4.10;99.90;;;;;;5096417;28;20463;-81
2021/11/29 09:16:44;;;;;;;547.77;127.97;;;4.10;99.90;;;;;;5096693;28;20459;-79
2021/11/29 09:24:49;;;;;;;540.13;119.70;;;4.10;99.90;;;;;;5095333;28;20515;-81
2021/11/29 09:27:25;;;;;;;537.67;117.87;;;4.20;99.90;;;;;;5092221;28;20463;-81
2021/11/29 09:29:59;;;;;;;532.83;114.70;;;4.20;99.90;;;;;;5091132;28;20546;-80
2021/11/29 09:40:35;;;;;;;531.23;109.77;;;4.00;99.90;;;;;;5089467;28;20478;-80
2021/11/29 09:43:13;;;;;;;534.27;113.97;;;4.00;99.90;;;;;;5089926;28;20513;-79
2021/11/29 09:45:42;;;;;;;541.33;121.40;;;4.10;99.90;;;;;;5098854;28;20559;-79
2021/11/29 09:48:10;;;;;;;536.47;114.37;;;4.10;99.90;;;;;;5090575;28;20451;-79
2021/11/29 09:50:38;;;;;;;540.33;122.20;;;4.10;99.90;;;;;;5095980;28;20567;-81
2021/11/29 09:53:07;;;;;;;543.83;122.90;;;4.10;99.90;;;;;;5098604;28;20471;-80
2021/11/29 09:55:35;;;;;;;536.83;116.07;;;4.10;99.90;;;;;;5102034;28;20505;-80
2021/11/29 09:58:04;;;;;;;538.93;116.50;;;4.10;99.90;;;;;;5101768;28;20197;-80
2021/11/29 10:00:36;;;;;;;544.80;125.83;;;4.20;99.90;;;;;;5100331;28;20473;-80
2021/11/29 10:03:04;;;;;;;543.77;123.97;;;4.20;99.90;;;;;;5101522;28;20237;-80
2021/11/29 10:05:33;;;;;;;544.30;127.20;;;4.20;99.90;;;;;;5099226;28;20526;-80
2021/11/29 10:08:00;;;;;;;545.47;123.23;;;4.40;99.90;;;;;;5101758;28;20208;-80
2021/11/29 10:10:29;;;;;;;537.77;117.03;;;4.40;99.90;;;;;;5097969;28;20504;-79
2021/11/29 10:12:59;;;;;;;544.47;126.83;;;4.40;99.90;;;;;;5090247;28;20516;-79
2021/11/29 10:15:29;;;;;;;539.03;122.70;;;4.50;99.90;;;;;;5086755;28;20198;-79
2021/11/29 10:18:11;;;;;;;551.27;133.33;;;4.50;99.90;;;;;;5092215;28;20619;-79
2021/11/29 10:20:49;;;;;;;538.20;117.77;;;4.50;99.90;;;;;;5086595;28;20471;-78
2021/11/29 10:23:23;;;;;;;550.83;129.90;;;4.50;99.90;;;;;;5084566;28;20212;-78
2021/11/29 10:25:51;;;;;;;545.73;125.27;;;4.50;99.90;;;;;;5094597;28;20226;-81
2021/11/29 10:28:28;;;;;;;547.00;129.93;;;4.60;99.90;;;;;;5086808;28;20213;-79
2021/11/29 10:31:12;;;;;;;542.27;117.40;;;4.60;99.90;;;;;;5087357;28;20232;-78
2021/11/29 10:33:55;;;;;;;544.13;121.23;;;4.50;99.90;;;;;;5086269;28;20467;-79
2021/11/29 10:36:23;;;;;;;537.97;113.63;;;4.40;99.90;;;;;;5087890;28;20197;-79
2021/11/29 10:44:19;;;;;;;545.60;121.47;;;4.60;99.90;;;;;;5087789;28;20208;-78
2021/11/29 10:46:47;;;;;;;547.03;126.00;;;4.70;99.90;;;;;;5093781;28;20459;-78
2021/11/29 10:49:17;;;;;;;547.50;125.53;;;4.90;99.90;;;;;;5089320;28;20470;-80
2021/11/29 10:51:47;;;;;;;547.20;124.13;;;4.90;99.90;;;;;;5094241;28;20537;-79
2021/11/29 10:54:16;;;;;;;551.27;127.07;;;4.90;99.90;;;;;;5089268;28;20478;-80
2021/11/29 10:56:45;;;;;;;551.13;127.37;;;4.90;99.90;;;;;;5087097;28;20467;-79
2021/11/29 10:59:15;;;;;;;545.83;129.03;;;4.90;99.90;;;;;;5087024;28;20535;-80
2021/11/29 11:05:12;;;;;;;560.80;144.97;;;4.90;99.90;;;;;;5123159;27;20594;-80
2021/11/29 11:07:40;;;;;;;559.43;141.00;;;5.00;99.90;;;;;;5108734;28;20234;-80
2021/11/29 11:12:59;;;;;;;557.97;146.70;;;5.10;99.90;;;;;;5105290;28;20212;-80
2021/11/29 11:20:54;;;;;;;555.60;143.10;;;5.20;99.90;;;;;;5104666;28;20211;-80
2021/11/29 11:29:21;;;;;;;565.57;156.67;;;5.30;99.90;;;;;;5099968;28;20204;-80
2021/11/29 11:34:34;;;;;;;569.13;153.30;;;5.50;99.90;;;;;;5104054;28;20287;-80
2021/11/29 11:39:58;;;;;;;563.97;156.13;;;5.70;99.90;;;;;;5101169;28;20234;-80
2021/11/29 11:47:52;;;;;;;561.57;149.73;;;5.60;99.90;;;;;;5098015;28;20249;-80
2021/11/29 11:53:20;;;;;;;554.83;132.10;;;5.60;99.90;;;;;;5099342;28;21353;-80
2021/11/29 11:55:50;;;;;;;556.87;138.47;;;5.50;99.90;;;;;;5102834;28;20542;-80
2021/11/29 12:01:06;;;;;;;560.27;154.10;;;5.60;99.90;;;;;;5099128;28;20225;-80
2021/11/29 12:09:06;;;;;;;565.13;151.20;;;5.80;99.90;;;;;;5099840;28;20207;-80
2021/11/29 12:14:27;;;;;;;566.07;157.63;;;6.00;99.90;;;;;;5094148;28;20219;-80
2021/11/29 12:16:59;;;;;;;557.53;141.93;;;6.00;99.90;;;;;;5070301;28;20204;-80
2021/11/29 12:19:42;;;;;;;566.27;157.13;;;6.10;99.90;;;;;;5088923;28;20262;-80
2021/11/29 12:25:24;;;;;;;562.57;151.33;;;6.00;99.90;;;;;;5082860;28;20229;-80
2021/11/29 12:30:40;;;;;;;564.70;159.57;;;5.90;99.90;;;;;;5083743;28;20229;-79
2021/11/29 12:35:58;;;;;;;571.47;161.00;;;5.80;99.90;;;;;;5085396;28;20209;-83
2021/11/29 12:38:25;;;;;;;564.70;153.63;;;5.80;99.90;;;;;;5084784;28;20240;-82
2021/11/29 12:40:57;;;;;;;565.57;160.77;;;5.90;99.90;;;;;;5087707;28;20201;-82
2021/11/29 12:43:37;;;;;;;571.43;171.27;;;5.90;99.90;;;;;;5082951;28;20658;-81
2021/11/29 12:51:56;;;;;;;570.00;161.17;;;6.00;99.90;;;;;;5087339;28;20267;-82
2021/11/29 12:54:38;;;;;;;573.17;152.37;;;6.00;99.90;;;;;;5087046;28;20201;-82
2021/11/29 13:03:00;;;;;;;570.00;162.73;;;6.30;99.90;;;;;;5083461;28;20237;-80
2021/11/29 13:05:39;;;;;;;570.40;155.20;;;6.40;99.90;;;;;;5082449;28;20235;-82
2021/11/29 13:08:19;;;;;;;569.13;160.77;;;6.50;99.90;;;;;;5087154;28;20200;-82
2021/11/29 13:10:53;;;;;;;569.67;167.60;;;6.50;99.90;;;;;;5087920;28;20239;-82
2021/11/29 13:16:11;;;;;;;568.03;169.97;;;6.60;99.90;;;;;;5084314;28;20478;-82
2021/11/29 13:21:59;;;;;;;563.47;151.70;;;6.60;99.90;;;;;;5084004;28;20475;-80
2021/11/29 13:24:33;;;;;;;574.47;170.93;;;6.70;99.90;;;;;;5088263;28;20225;-81
2021/11/29 13:30:03;;;;;;;576.97;172.37;;;6.60;99.90;;;;;;5085686;28;20213;-81
2021/11/29 13:32:32;;;;;;;567.50;157.57;;;6.60;99.90;;;;;;5086619;28;20201;-81
2021/11/29 13:35:36;;;;;;;569.90;169.60;;;6.60;99.90;;;;;;5085957;28;20204;-81
2021/11/29 13:38:03;;;;;;;573.30;168.57;;;6.60;99.90;;;;;;5084059;28;20209;-82
2021/11/29 13:40:33;;;;;;;567.97;166.03;;;6.60;99.90;;;;;;5088078;28;20239;-81
2021/11/29 13:43:07;;;;;;;570.00;168.43;;;6.60;99.90;;;;;;5087132;28;20206;-80
2021/11/29 13:56:23;;;;;;;576.47;175.70;;;6.80;99.90;;;;;;5084024;28;20200;-80
2021/11/29 13:58:51;;;;;;;577.25;172.13;;;6.90;99.90;;;;;;5080324;28;20201;-81
2021/11/29 14:01:29;;;;;;;581.95;180.60;;;7.00;99.90;;;;;;5087411;28;20243;-80
2021/11/29 14:03:58;;;;;;;579.03;179.43;;;7.10;99.90;;;;;;5081450;28;20240;-81
2021/11/29 14:09:15;;;;;;;572.10;180.97;;;7.20;99.90;;;;;;5085095;28;20653;-79
2021/11/29 14:17:20;;;;;;;577.00;183.27;;;7.30;99.90;;;;;;5085447;28;20212;-83
2021/11/29 14:19:46;;;;;;;565.63;160.30;;;7.30;99.90;;;;;;5087171;28;20231;-82
2021/11/29 14:22:13;;;;;;;569.23;169.37;;;7.40;99.90;;;;;;5088255;28;20256;-82
2021/11/29 14:24:40;;;;;;;569.03;169.97;;;7.40;99.90;;;;;;5086172;28;20251;-83
2021/11/29 14:32:37;;;;;;;580.77;193.83;;;7.30;99.90;;;;;;5084688;28;20198;-82
2021/11/29 14:37:52;;;;;;;579.47;170.03;;;7.40;99.90;;;;;;5086055;28;20208;-80
2021/11/29 14:40:19;;;;;;;569.27;157.97;;;7.40;99.90;;;;;;5084755;28;20230;-82
2021/11/29 14:42:50;;;;;;;576.30;171.73;;;7.40;99.90;;;;;;5064443;28;20261;-83
2021/11/29 14:45:29;;;;;;;583.50;195.40;;;7.40;99.90;;;;;;5079341;28;20210;-83
2021/11/29 14:50:41;;;;;;;575.23;180.30;;;7.20;99.90;;;;;;5080406;28;20455;-82
2021/11/29 14:56:01;;;;;;;574.07;178.03;;;7.20;99.90;;;;;;5085233;28;20296;-81
2021/11/29 15:03:56;;;;;;;574.03;173.60;;;7.30;99.90;;;;;;5083842;28;20239;-82
2021/11/29 15:06:26;;;;;;;574.37;178.17;;;7.30;99.90;;;;;;5083786;28;20205;-81
2021/11/29 15:08:58;;;;;;;570.03;170.17;;;7.20;99.90;;;;;;5079401;28;20231;-82
2021/11/29 15:11:33;;;;;;;573.00;177.30;;;7.20;99.90;;;;;;5082254;28;20205;-82
2021/11/29 15:16:44;;;;;;;570.33;170.73;;;7.30;99.90;;;;;;5084541;28;20208;-81
2021/11/29 15:22:09;;;;;;;569.13;166.73;;;7.30;99.90;;;;;;5081553;28;20852;-81
2021/11/29 15:24:42;;;;;;;578.33;178.30;;;7.40;99.90;;;;;;5077186;28;20232;-81
2021/11/29 15:27:20;;;;;;;578.10;193.73;;;7.40;99.90;;;;;;5082446;28;20193;-81
2021/11/29 15:35:29;;;;;;;576.63;185.33;;;7.50;99.90;;;;;;5084425;28;20224;-83
2021/11/29 15:38:14;;;;;;;569.60;161.60;;;7.50;99.90;;;;;;5078172;28;20368;-82
2021/11/29 15:40:44;;;;;;;572.07;172.83;;;7.40;99.90;;;;;;5080770;28;20232;-81
2021/11/29 15:43:16;;;;;;;568.20;161.97;;;7.50;99.90;;;;;;5082177;28;20243;-82
2021/11/29 15:56:59;;;;;;;575.67;190.83;;;7.40;99.90;;;;;;5085903;28;20213;-82
2021/11/29 16:07:38;;;;;;;568.03;170.03;;;7.30;99.90;;;;;;5085057;28;20196;-82
2021/11/29 16:10:14;;;;;;;574.47;178.93;;;7.30;99.90;;;;;;5083163;28;20463;-80
2021/11/29 16:23:30;;;;;;;575.07;190.80;;;7.20;99.90;;;;;;5085599;28;20196;-79
2021/11/29 16:26:02;;;;;;;570.60;174.37;;;7.20;99.90;;;;;;5086957;28;20718;-79
2021/11/29 16:28:31;;;;;;;576.20;192.37;;;7.20;99.90;;;;;;5086292;28;20201;-80
2021/11/29 16:30:59;;;;;;;574.93;189.53;;;7.10;99.90;;;;;;5087130;28;20626;-80
2021/11/29 16:33:28;;;;;;;578.70;190.07;;;7.10;99.90;;;;;;5083446;28;20197;-80
2021/11/29 16:35:56;;;;;;;574.67;174.83;;;7.10;99.90;;;;;;5085225;28;20230;-78
2021/11/29 16:38:28;;;;;;;584.80;180.30;;;7.10;99.90;;;;;;5086668;28;20193;-80
2021/11/29 16:43:49;;;;;;;583.57;188.87;;;7.10;99.90;;;;;;5081762;28;20210;-79
2021/11/29 16:46:24;;;;;;;582.87;192.23;;;7.10;99.90;;;;;;5086487;28;20200;-80